Time;durP1;ratioP1;P1;durP2;ratioP2;P2;SDS_P1;SDS_P2;PMS_P1;PMS_P2;Temp;Humidity;BMP_temperature;BMP_pressure;BME280_temperature;BME280_humidity;BME280_pressure;Samples;Min_cycle;Max_cycle;Signal;HPM_P1;HPM_P2
2023/09/10 00:02:23;;;;;;;1.58;1.30;;;22.10;64.90;;;;;;6235443;28;20102;-67
2023/09/10 00:05:23;;;;;;;2.22;1.50;;;22.10;64.90;;;;;;6217984;28;20038;-67
2023/09/10 00:08:24;;;;;;;1.75;1.48;;;22.10;64.90;;;;;;6228657;28;20037;-67
2023/09/10 00:11:25;;;;;;;1.40;1.30;;;22.10;64.90;;;;;;6218038;28;20536;-67
2023/09/10 00:14:26;;;;;;;1.75;1.40;;;22.10;64.90;;;;;;6227839;28;20358;-67
2023/09/10 00:17:27;;;;;;;2.00;1.25;;;22.10;64.90;;;;;;6217832;28;20018;-67
2023/09/10 00:20:28;;;;;;;2.13;1.30;;;22.10;64.90;;;;;;6217715;28;20539;-67
2023/09/10 00:23:28;;;;;;;2.40;1.65;;;22.00;64.80;;;;;;6226520;28;20057;-66
2023/09/10 00:26:29;;;;;;;1.98;1.33;;;22.10;64.90;;;;;;6218112;28;20057;-67
2023/09/10 00:29:29;;;;;;;2.08;1.50;;;22.10;65.70;;;;;;6217815;28;20021;-67
2023/09/10 00:32:30;;;;;;;1.70;1.48;;;22.10;64.90;;;;;;6221705;28;20021;-68
2023/09/10 00:35:31;;;;;;;2.08;1.58;;;22.10;64.90;;;;;;6228872;28;20065;-67
2023/09/10 00:38:31;;;;;;;1.73;1.63;;;22.00;64.80;;;;;;6217729;28;20108;-66
2023/09/10 00:41:32;;;;;;;2.33;1.88;;;22.10;64.90;;;;;;6217168;28;20037;-67
2023/09/10 00:44:33;;;;;;;2.08;1.70;;;22.10;64.90;;;;;;6232067;28;20480;-68
2023/09/10 00:47:39;;;;;;;2.75;1.48;;;22.10;64.90;;;;;;6217763;28;20026;-67
2023/09/10 00:50:40;;;;;;;2.22;1.40;;;22.10;64.90;;;;;;6213590;28;20141;-67
2023/09/10 00:53:41;;;;;;;1.52;1.33;;;22.10;64.90;;;;;;6214749;28;20480;-67
2023/09/10 00:56:42;;;;;;;3.30;2.03;;;22.10;65.00;;;;;;6219272;28;20037;-67
2023/09/10 00:59:44;;;;;;;1.92;1.50;;;22.10;64.90;;;;;;6233465;28;20037;-67
2023/09/10 01:02:44;;;;;;;2.05;1.60;;;22.10;64.90;;;;;;6241050;28;20078;-68
2023/09/10 01:05:45;;;;;;;1.92;1.60;;;22.10;64.90;;;;;;6222127;28;20034;-67
2023/09/10 01:08:47;;;;;;;2.42;1.73;;;22.10;64.90;;;;;;6231405;28;20033;-67
2023/09/10 01:12:09;;;;;;;2.20;1.80;;;22.10;65.00;;;;;;6230903;28;20018;-67
2023/09/10 01:15:26;;;;;;;2.03;1.70;;;22.00;64.90;;;;;;6221326;28;20401;-67
2023/09/10 01:18:46;;;;;;;2.15;1.90;;;22.00;64.90;;;;;;6226913;28;20017;-67
2023/09/10 01:22:01;;;;;;;2.63;1.90;;;22.10;65.00;;;;;;6230754;28;20065;-67
2023/09/10 01:25:03;;;;;;;2.47;1.70;;;22.10;65.00;;;;;;6221100;28;20457;-68
2023/09/10 01:28:04;;;;;;;2.67;1.90;;;22.10;65.00;;;;;;6222443;28;20053;-67
2023/09/10 01:31:04;;;;;;;2.05;1.60;;;22.10;65.00;;;;;;6236478;28;20022;-66
2023/09/10 01:34:08;;;;;;;2.83;2.03;;;22.00;64.90;;;;;;6221478;28;20434;-66
2023/09/10 01:37:35;;;;;;;3.33;2.05;;;22.10;65.00;;;;;;6221100;28;20022;-67
2023/09/10 01:40:45;;;;;;;2.35;1.60;;;22.10;65.00;;;;;;6242130;28;20379;-67
2023/09/10 01:43:48;;;;;;;2.85;2.10;;;22.10;65.00;;;;;;6226472;28;20014;-67
2023/09/10 01:46:50;;;;;;;2.70;1.98;;;22.10;65.00;;;;;;6238514;28;20034;-67
2023/09/10 01:49:51;;;;;;;2.25;1.95;;;22.10;65.30;;;;;;6220765;28;20038;-68
2023/09/10 01:52:51;;;;;;;1.98;1.70;;;22.10;65.00;;;;;;6215203;28;20026;-67
2023/09/10 01:55:52;;;;;;;2.92;1.80;;;22.10;65.00;;;;;;6237743;28;20405;-67
2023/09/10 01:58:52;;;;;;;2.83;2.10;;;22.10;65.00;;;;;;6224310;28;20076;-67
2023/09/10 02:01:55;;;;;;;2.60;1.80;;;22.10;65.00;;;;;;6237300;28;20080;-67
2023/09/10 02:04:57;;;;;;;2.05;1.77;;;22.10;65.00;;;;;;6221079;28;20026;-67
2023/09/10 02:07:58;;;;;;;2.17;1.85;;;22.00;64.90;;;;;;6220455;28;20030;-67
2023/09/10 02:11:04;;;;;;;2.08;1.70;;;22.10;65.00;;;;;;6239128;28;20026;-67
2023/09/10 02:14:06;;;;;;;2.15;1.77;;;22.10;65.00;;;;;;6223431;28;20392;-67
2023/09/10 02:17:08;;;;;;;4.30;2.10;;;22.10;65.00;;;;;;6243136;28;20135;-67
2023/09/10 02:20:09;;;;;;;2.10;1.73;;;22.10;65.00;;;;;;6220613;28;20030;-67
2023/09/10 02:23:10;;;;;;;2.13;1.63;;;22.10;65.00;;;;;;6220001;28;20037;-67
2023/09/10 02:26:11;;;;;;;2.90;2.00;;;22.10;65.10;;;;;;6220452;28;20029;-67
2023/09/10 02:29:12;;;;;;;1.92;1.65;;;22.10;65.00;;;;;;6219660;28;20064;-68
2023/09/10 02:32:12;;;;;;;2.50;2.10;;;22.10;65.00;;;;;;6220006;28;20026;-67
2023/09/10 02:35:13;;;;;;;3.30;2.40;;;22.10;65.00;;;;;;6229217;28;20341;-68
2023/09/10 02:38:13;;;;;;;2.97;2.17;;;22.10;65.10;;;;;;6244416;28;20063;-67
2023/09/10 02:41:14;;;;;;;3.08;2.08;;;22.10;65.00;;;;;;6225437;28;20041;-68
2023/09/10 02:44:14;;;;;;;2.42;1.83;;;22.10;65.10;;;;;;6219549;28;20030;-67
2023/09/10 02:47:15;;;;;;;2.50;2.03;;;22.10;65.10;;;;;;6244543;28;20634;-67
2023/09/10 02:50:15;;;;;;;3.13;2.10;;;22.10;65.10;;;;;;6232655;28;20373;-67
2023/09/10 02:53:16;;;;;;;2.78;1.90;;;22.10;65.10;;;;;;6195255;28;20029;-67
2023/09/10 02:56:17;;;;;;;2.28;1.80;;;22.10;65.10;;;;;;6223009;28;20026;-68
2023/09/10 02:59:35;;;;;;;3.05;2.25;;;22.00;65.00;;;;;;6219256;28;20103;-67
2023/09/10 03:02:36;;;;;;;2.22;1.88;;;22.10;65.20;;;;;;6216541;28;20556;-67
2023/09/10 03:05:36;;;;;;;2.38;1.92;;;22.10;65.10;;;;;;6222016;28;20040;-68
2023/09/10 03:08:37;;;;;;;3.40;2.15;;;22.00;65.00;;;;;;6239634;28;20045;-67
2023/09/10 03:11:38;;;;;;;2.15;1.90;;;22.10;65.20;;;;;;6227061;28;20030;-67
2023/09/10 03:14:39;;;;;;;2.55;2.00;;;22.10;65.20;;;;;;6218892;28;20054;-67
2023/09/10 03:17:39;;;;;;;3.25;2.10;;;22.10;65.10;;;;;;6220485;28;20057;-67
2023/09/10 03:20:41;;;;;;;2.30;2.05;;;22.10;65.20;;;;;;6217728;28;20034;-67
2023/09/10 03:23:41;;;;;;;3.03;2.05;;;22.00;65.00;;;;;;6218681;28;20030;-67
2023/09/10 03:26:42;;;;;;;2.10;1.75;;;22.10;65.20;;;;;;6218817;28;20405;-67
2023/09/10 03:29:45;;;;;;;2.58;2.20;;;22.10;65.20;;;;;;6218717;28;20037;-67
2023/09/10 03:32:50;;;;;;;2.67;1.90;;;22.10;65.20;;;;;;6218604;28;20018;-67
2023/09/10 03:35:50;;;;;;;2.55;2.13;;;22.10;65.20;;;;;;6225421;28;20022;-68
2023/09/10 03:38:51;;;;;;;2.72;2.15;;;22.00;65.00;;;;;;6218744;28;20481;-67
2023/09/10 03:41:52;;;;;;;2.08;1.88;;;22.10;65.20;;;;;;6218743;28;20030;-67
2023/09/10 03:44:53;;;;;;;2.70;2.08;;;22.10;65.20;;;;;;6218292;28;20022;-67
2023/09/10 03:47:53;;;;;;;3.05;2.47;;;22.10;65.20;;;;;;6224060;28;20436;-67
2023/09/10 03:50:54;;;;;;;2.70;2.08;;;22.10;65.20;;;;;;6223198;28;20021;-67
2023/09/10 03:53:55;;;;;;;4.15;1.80;;;22.10;65.20;;;;;;6218348;28;20108;-67
2023/09/10 03:56:55;;;;;;;2.53;1.98;;;22.10;65.20;;;;;;6221739;28;20033;-68
2023/09/10 04:00:33;;;;;;;2.60;2.00;;;22.10;65.20;;;;;;6218211;28;20050;-67
2023/09/10 04:03:34;;;;;;;2.38;1.90;;;22.10;65.20;;;;;;6193930;28;20034;-68
2023/09/10 04:06:35;;;;;;;2.35;1.92;;;22.00;65.10;;;;;;6210930;28;20099;-67
2023/09/10 04:09:35;;;;;;;2.33;1.95;;;22.10;65.20;;;;;;6220660;28;20021;-67
2023/09/10 04:12:37;;;;;;;2.08;1.80;;;22.10;65.20;;;;;;6217801;28;20304;-67
2023/09/10 04:15:37;;;;;;;2.45;2.00;;;22.10;65.20;;;;;;6217910;28;20057;-67
2023/09/10 04:18:38;;;;;;;3.17;2.05;;;22.10;65.20;;;;;;6227629;28;20469;-67
2023/09/10 04:21:38;;;;;;;3.40;2.22;;;22.10;65.20;;;;;;6224575;28;20037;-68
2023/09/10 04:24:39;;;;;;;3.00;2.10;;;22.10;65.20;;;;;;6217604;28;20420;-67
2023/09/10 04:27:40;;;;;;;2.30;2.03;;;22.10;65.20;;;;;;6232900;28;20082;-67
2023/09/10 04:30:40;;;;;;;2.53;2.05;;;22.10;65.20;;;;;;6219384;28;20022;-68
2023/09/10 04:33:41;;;;;;;2.67;2.15;;;22.10;65.20;;;;;;6220393;28;20405;-67
2023/09/10 04:36:42;;;;;;;3.10;2.00;;;22.10;65.20;;;;;;6227930;28;20022;-67
2023/09/10 04:39:42;;;;;;;2.58;2.17;;;22.10;65.20;;;;;;6232599;28;20095;-67
2023/09/10 04:42:43;;;;;;;2.60;1.70;;;22.10;65.20;;;;;;6222416;28;20469;-68
2023/09/10 04:45:43;;;;;;;2.53;2.08;;;22.10;65.20;;;;;;6222547;28;20108;-67
2023/09/10 04:48:45;;;;;;;2.88;2.00;;;22.10;65.30;;;;;;6236601;28;20056;-67
2023/09/10 04:51:46;;;;;;;2.58;1.90;;;22.10;65.20;;;;;;6226432;28;20022;-67
2023/09/10 04:54:46;;;;;;;2.42;1.92;;;22.10;65.30;;;;;;6242676;28;20451;-67
2023/09/10 04:57:48;;;;;;;2.88;2.10;;;22.10;65.20;;;;;;6239184;28;20033;-66
2023/09/10 05:00:50;;;;;;;2.00;1.80;;;22.00;65.20;;;;;;6222072;28;20037;-67
2023/09/10 05:03:51;;;;;;;2.50;2.10;;;22.10;65.30;;;;;;6236286;28;20482;-67
2023/09/10 05:06:51;;;;;;;2.20;1.80;;;22.10;65.20;;;;;;6226525;28;20021;-67
2023/09/10 05:09:54;;;;;;;2.38;2.03;;;22.10;65.30;;;;;;6221681;28;20089;-67
2023/09/10 05:12:55;;;;;;;2.40;2.00;;;22.10;65.20;;;;;;6232678;28;20046;-67
2023/09/10 05:15:57;;;;;;;3.20;2.22;;;22.10;65.20;;;;;;6229878;28;20396;-67
2023/09/10 05:18:57;;;;;;;2.78;2.35;;;22.10;65.30;;;;;;6220108;28;20416;-67
2023/09/10 05:21:59;;;;;;;2.45;2.00;;;22.10;65.30;;;;;;6222774;28;20030;-67
2023/09/10 05:24:59;;;;;;;2.63;2.17;;;22.10;65.30;;;;;;6237091;28;20033;-67
2023/09/10 05:28:00;;;;;;;2.50;2.00;;;22.10;65.30;;;;;;6221735;28;20026;-67
2023/09/10 05:31:04;;;;;;;2.40;2.00;;;22.10;65.30;;;;;;6220976;28;20032;-67
2023/09/10 05:34:05;;;;;;;2.65;2.20;;;22.10;65.30;;;;;;6237105;28;20052;-67
2023/09/10 05:37:06;;;;;;;2.53;2.17;;;22.10;65.30;;;;;;6221020;28;20025;-67
2023/09/10 05:40:07;;;;;;;3.13;2.05;;;22.00;65.20;;;;;;6220880;28;20183;-67
2023/09/10 05:43:08;;;;;;;2.42;2.20;;;22.00;65.20;;;;;;6229630;28;20079;-67
2023/09/10 05:46:10;;;;;;;2.92;2.28;;;22.00;65.20;;;;;;6234160;28;20384;-67
2023/09/10 05:49:12;;;;;;;3.35;2.17;;;22.10;65.30;;;;;;6221291;28;20068;-67
2023/09/10 05:52:13;;;;;;;2.67;2.20;;;22.10;65.30;;;;;;6204374;28;20037;-67
2023/09/10 05:55:13;;;;;;;3.08;2.10;;;22.10;65.30;;;;;;6241345;28;20435;-67
2023/09/10 05:58:14;;;;;;;2.38;2.08;;;22.10;65.30;;;;;;6227756;28;20029;-67
2023/09/10 06:01:15;;;;;;;2.63;2.08;;;22.10;65.30;;;;;;6233919;28;20033;-67
2023/09/10 06:04:15;;;;;;;3.00;2.22;;;22.10;65.30;;;;;;6220608;28;20062;-67
2023/09/10 06:07:16;;;;;;;2.33;2.00;;;22.10;65.30;;;;;;6220405;28;20022;-67
2023/09/10 06:10:16;;;;;;;2.53;2.03;;;22.10;65.30;;;;;;6239132;28;20046;-67
2023/09/10 06:13:17;;;;;;;2.75;1.95;;;22.10;65.30;;;;;;6220557;28;20050;-67
2023/09/10 06:16:18;;;;;;;2.95;2.20;;;22.10;66.10;;;;;;6219802;28;20432;-67
2023/09/10 06:19:18;;;;;;;2.10;1.90;;;22.10;65.30;;;;;;6233253;28;20084;-67
2023/09/10 06:22:19;;;;;;;2.60;2.10;;;22.10;65.30;;;;;;6232722;28;20480;-66
2023/09/10 06:25:19;;;;;;;2.78;2.40;;;22.10;65.30;;;;;;6219976;28;20496;-67
2023/09/10 06:28:20;;;;;;;2.45;2.15;;;22.10;65.30;;;;;;6223745;28;20025;-67
2023/09/10 06:31:21;;;;;;;2.95;2.13;;;22.00;65.20;;;;;;6241378;28;20097;-67
2023/09/10 06:34:22;;;;;;;2.58;2.00;;;22.10;65.30;;;;;;6220322;28;20477;-67
2023/09/10 06:37:23;;;;;;;2.60;2.17;;;22.10;65.30;;;;;;6219736;28;20065;-67
2023/09/10 06:40:24;;;;;;;2.58;2.08;;;22.10;65.30;;;;;;6238703;28;20029;-67
2023/09/10 06:43:24;;;;;;;2.20;1.90;;;22.10;65.30;;;;;;6231889;28;20033;-67
2023/09/10 06:46:25;;;;;;;2.83;2.30;;;22.10;65.30;;;;;;6219182;28;20116;-67
2023/09/10 06:49:26;;;;;;;2.33;1.92;;;22.10;65.30;;;;;;6229452;28;20112;-67
2023/09/10 06:52:27;;;;;;;2.35;2.03;;;22.10;65.30;;;;;;6225264;28;20026;-67
2023/09/10 06:55:27;;;;;;;2.55;2.08;;;22.10;65.30;;;;;;6236967;28;20033;-67
2023/09/10 06:58:28;;;;;;;2.40;2.00;;;22.10;65.30;;;;;;6220025;28;20480;-67
2023/09/10 07:01:29;;;;;;;2.38;2.13;;;22.10;65.30;;;;;;6243493;28;20026;-67
2023/09/10 07:04:29;;;;;;;2.22;1.80;;;22.10;65.30;;;;;;6227460;28;20030;-67
2023/09/10 07:07:30;;;;;;;3.58;2.28;;;22.10;65.30;;;;;;6219184;28;20112;-67
2023/09/10 07:10:30;;;;;;;2.20;1.80;;;22.10;65.30;;;;;;6235175;28;20116;-67
2023/09/10 07:13:31;;;;;;;2.05;1.80;;;22.10;65.30;;;;;;6230067;28;20065;-67
2023/09/10 07:16:33;;;;;;;2.42;2.05;;;22.10;65.30;;;;;;6218848;28;20034;-67
2023/09/10 07:19:34;;;;;;;2.38;2.10;;;22.10;65.30;;;;;;6226270;28;20043;-67
2023/09/10 07:22:35;;;;;;;2.78;2.22;;;22.10;65.30;;;;;;6243475;28;20484;-67
2023/09/10 07:25:37;;;;;;;2.95;2.00;;;22.10;65.30;;;;;;6235321;28;20040;-68
2023/09/10 07:28:38;;;;;;;2.75;2.13;;;22.10;65.30;;;;;;6237520;28;20041;-67
2023/09/10 07:31:38;;;;;;;2.20;1.95;;;22.10;65.30;;;;;;6218505;28;20022;-67
2023/09/10 07:34:39;;;;;;;2.10;1.83;;;22.00;65.20;;;;;;6218644;28;20057;-67
2023/09/10 07:37:39;;;;;;;2.53;1.92;;;22.10;65.30;;;;;;6218518;28;20073;-67
2023/09/10 07:40:40;;;;;;;2.92;2.30;;;22.10;65.30;;;;;;6231061;28;20045;-67
2023/09/10 07:43:41;;;;;;;2.25;1.90;;;22.10;65.30;;;;;;6236886;28;20037;-67
2023/09/10 07:46:42;;;;;;;2.05;1.80;;;22.00;65.20;;;;;;6218306;28;20064;-67
2023/09/10 07:49:42;;;;;;;2.40;2.00;;;22.10;65.30;;;;;;6222122;28;20025;-68
2023/09/10 07:52:43;;;;;;;2.63;2.00;;;22.10;65.30;;;;;;6222668;28;20037;-67
2023/09/10 07:55:43;;;;;;;2.60;2.08;;;22.10;65.30;;;;;;6226992;28;20029;-68
2023/09/10 07:58:44;;;;;;;2.10;1.83;;;22.10;65.30;;;;;;6218361;28;20072;-67
2023/09/10 08:01:44;;;;;;;2.63;1.67;;;22.10;65.30;;;;;;6236714;28;20045;-67
2023/09/10 08:04:45;;;;;;;2.08;1.75;;;22.10;65.30;;;;;;6235514;28;20029;-67
2023/09/10 08:07:46;;;;;;;2.70;2.20;;;22.10;65.30;;;;;;6221237;28;20316;-67
2023/09/10 08:10:47;;;;;;;2.83;2.20;;;22.10;65.30;;;;;;6236213;28;20021;-67
2023/09/10 08:13:47;;;;;;;2.50;1.98;;;22.10;65.30;;;;;;6250342;28;20411;-67
2023/09/10 08:16:48;;;;;;;2.42;2.10;;;22.10;65.30;;;;;;6226536;28;20030;-67
2023/09/10 08:19:48;;;;;;;2.30;1.92;;;22.10;65.30;;;;;;6226407;28;20219;-67
2023/09/10 08:22:49;;;;;;;2.40;2.00;;;22.00;65.20;;;;;;6251115;28;20021;-67
2023/09/10 08:25:52;;;;;;;2.85;2.08;;;22.10;65.30;;;;;;6241711;28;20100;-67
2023/09/10 08:28:52;;;;;;;2.80;2.00;;;22.10;65.30;;;;;;6226171;28;20022;-68
2023/09/10 08:31:53;;;;;;;2.35;1.88;;;22.10;65.30;;;;;;6225474;28;20165;-67
2023/09/10 08:34:53;;;;;;;2.28;1.85;;;22.10;65.30;;;;;;6226413;28;20046;-67
2023/09/10 08:37:54;;;;;;;2.28;2.00;;;22.10;65.30;;;;;;6225606;28;20033;-66
2023/09/10 08:40:58;;;;;;;2.45;1.83;;;22.10;66.20;;;;;;6232728;28;20549;-68
2023/09/10 08:44:01;;;;;;;2.08;1.73;;;22.10;65.30;;;;;;6250166;28;20086;-67
2023/09/10 08:47:05;;;;;;;2.40;1.83;;;22.10;65.30;;;;;;6232524;28;20068;-67
2023/09/10 08:50:13;;;;;;;1.90;1.55;;;22.00;65.20;;;;;;6226010;28;20024;-67
2023/09/10 08:53:16;;;;;;;2.03;1.60;;;22.10;65.30;;;;;;6231009;28;20022;-67
2023/09/10 08:56:16;;;;;;;2.10;1.80;;;22.10;65.30;;;;;;6241140;28;20072;-67
2023/09/10 08:59:17;;;;;;;1.70;1.60;;;22.10;65.30;;;;;;6225639;28;20104;-67
2023/09/10 09:02:18;;;;;;;2.03;1.73;;;22.10;65.30;;;;;;6225115;28;20033;-68
2023/09/10 09:05:19;;;;;;;2.00;1.58;;;22.10;65.30;;;;;;6225824;28;20061;-67
2023/09/10 09:08:25;;;;;;;2.40;1.80;;;22.10;65.30;;;;;;6228754;28;20101;-67
2023/09/10 09:11:27;;;;;;;2.20;1.90;;;22.00;65.20;;;;;;6224867;28;20040;-67
2023/09/10 09:14:29;;;;;;;2.10;1.80;;;22.10;65.30;;;;;;6225626;28;20493;-67
2023/09/10 09:17:29;;;;;;;1.77;1.60;;;22.10;65.30;;;;;;6226803;28;20033;-66
2023/09/10 09:20:31;;;;;;;1.73;1.60;;;22.10;65.30;;;;;;6222773;28;20036;-67
2023/09/10 09:23:37;;;;;;;2.20;1.50;;;22.10;65.30;;;;;;6221025;28;20054;-68
2023/09/10 09:26:41;;;;;;;1.90;1.70;;;22.10;65.30;;;;;;6228117;28;20025;-67
2023/09/10 09:29:42;;;;;;;1.90;1.70;;;22.10;65.40;;;;;;6223168;28;20042;-67
2023/09/10 09:32:45;;;;;;;2.15;1.70;;;22.10;65.40;;;;;;6221010;28;20437;-67
2023/09/10 09:35:46;;;;;;;2.33;1.88;;;22.10;65.30;;;;;;6221568;28;20026;-67
2023/09/10 09:38:48;;;;;;;1.77;1.50;;;22.10;65.30;;;;;;6228774;28;20109;-67
2023/09/10 09:41:54;;;;;;;1.85;1.65;;;22.10;65.30;;;;;;6221419;28;20109;-67
2023/09/10 09:44:54;;;;;;;1.92;1.60;;;22.10;65.40;;;;;;6220952;28;20030;-67
2023/09/10 09:47:55;;;;;;;1.70;1.48;;;22.10;65.40;;;;;;6235141;28;20065;-67
2023/09/10 09:50:59;;;;;;;2.22;1.92;;;22.00;65.30;;;;;;6221337;28;20053;-67
2023/09/10 09:54:01;;;;;;;2.40;1.60;;;22.10;65.30;;;;;;6234283;28;20108;-67
2023/09/10 09:57:03;;;;;;;2.42;1.65;;;22.10;65.40;;;;;;6226084;28;20017;-67
2023/09/10 10:00:08;;;;;;;1.77;1.58;;;22.10;65.30;;;;;;6227375;28;20034;-67
2023/09/10 10:03:10;;;;;;;1.90;1.67;;;22.10;65.30;;;;;;6220227;28;20030;-67
2023/09/10 10:06:16;;;;;;;1.67;1.50;;;22.10;65.30;;;;;;6220915;28;20022;-67
2023/09/10 10:09:19;;;;;;;1.80;1.63;;;22.10;65.30;;;;;;6232425;28;20116;-67
2023/09/10 10:12:19;;;;;;;1.40;1.30;;;22.10;65.30;;;;;;6238625;28;20038;-67
2023/09/10 10:15:22;;;;;;;2.17;1.80;;;22.10;65.30;;;;;;6220753;28;20033;-67
2023/09/10 10:18:26;;;;;;;1.45;1.33;;;22.10;65.30;;;;;;6230171;28;20026;-67
2023/09/10 10:21:28;;;;;;;2.03;1.63;;;22.00;65.20;;;;;;6220638;28;20038;-68
2023/09/10 10:24:29;;;;;;;1.60;1.45;;;22.10;65.40;;;;;;6237386;28;20443;-67
2023/09/10 10:27:33;;;;;;;2.03;1.60;;;22.10;65.30;;;;;;6219908;28;20041;-67
2023/09/10 10:30:37;;;;;;;1.40;1.25;;;22.10;65.30;;;;;;6219361;28;20204;-68
2023/09/10 10:33:46;;;;;;;2.33;1.67;;;22.10;65.30;;;;;;6233698;28;20084;-67
2023/09/10 10:37:07;;;;;;;1.60;1.40;;;22.00;65.20;;;;;;6221289;28;20443;-67
2023/09/10 10:40:12;;;;;;;1.98;1.67;;;22.10;65.30;;;;;;6204964;28;20559;-67
2023/09/10 10:43:21;;;;;;;1.63;1.50;;;22.10;65.30;;;;;;6229040;28;20025;-67
2023/09/10 10:46:26;;;;;;;1.88;1.52;;;22.10;65.30;;;;;;6223874;28;20021;-68
2023/09/10 10:49:28;;;;;;;;;;;22.10;65.30;;;;;;6220198;28;20021;-67
2023/09/10 10:52:30;;;;;;;1.40;1.23;;;22.10;65.30;;;;;;6204554;28;20300;-67
2023/09/10 10:55:33;;;;;;;1.60;1.50;;;22.10;65.30;;;;;;6238770;28;20018;-67
2023/09/10 10:58:39;;;;;;;1.45;1.13;;;22.00;65.20;;;;;;6229343;28;20029;-67
2023/09/10 11:01:40;;;;;;;1.52;1.42;;;22.00;65.30;;;;;;6229361;28;20029;-68
2023/09/10 11:04:53;;;;;;;1.42;1.33;;;22.10;65.30;;;;;;6219010;28;20167;-68
2023/09/10 11:08:26;;;;;;;1.73;1.33;;;22.00;65.20;;;;;;6222124;28;20022;-67
2023/09/10 11:11:39;;;;;;;2.00;1.65;;;22.10;65.40;;;;;;6231015;28;20054;-67
2023/09/10 11:14:59;;;;;;;1.55;1.27;;;22.10;65.40;;;;;;6218857;28;20054;-67
2023/09/10 11:18:36;;;;;;;1.52;1.30;;;22.10;65.30;;;;;;6222050;28;20416;-67
2023/09/10 11:21:55;;;;;;;1.17;1.08;;;22.10;65.30;;;;;;6229335;28;20033;-67
2023/09/10 11:25:06;;;;;;;1.48;1.38;;;22.10;65.30;;;;;;6218590;28;20018;-67
2023/09/10 11:28:58;;;;;;;1.58;1.33;;;22.10;65.40;;;;;;6221011;28;20116;-67
2023/09/10 11:31:59;;;;;;;1.20;1.10;;;22.00;65.20;;;;;;6211152;28;20117;-67
2023/09/10 11:35:18;;;;;;;1.42;1.30;;;22.10;65.40;;;;;;6218935;28;20034;-67
2023/09/10 11:38:20;;;;;;;1.33;1.20;;;22.10;65.40;;;;;;6220620;28;20056;-67
2023/09/10 11:41:21;;;;;;;1.08;0.98;;;22.10;65.30;;;;;;6239324;28;20080;-68
2023/09/10 11:44:22;;;;;;;1.98;1.30;;;22.10;65.30;;;;;;6217710;28;20057;-68
2023/09/10 11:47:26;;;;;;;1.40;1.23;;;22.00;65.20;;;;;;6218373;28;20036;-68
2023/09/10 11:50:27;;;;;;;1.40;1.30;;;22.10;65.30;;;;;;6235011;28;20100;-67
2023/09/10 11:53:27;;;;;;;1.40;1.27;;;22.00;65.30;;;;;;6219589;28;20265;-67
2023/09/10 11:56:28;;;;;;;1.42;1.33;;;22.00;65.30;;;;;;6235068;28;20552;-67
2023/09/10 11:59:30;;;;;;;1.92;1.58;;;22.10;65.30;;;;;;6227342;28;20021;-67
2023/09/10 12:02:30;;;;;;;1.48;1.30;;;22.00;65.20;;;;;;6237762;28;20365;-67
2023/09/10 12:05:31;;;;;;;1.75;1.30;;;22.10;65.30;;;;;;6217764;28;20022;-68
2023/09/10 12:08:31;;;;;;;1.40;1.10;;;22.00;65.20;;;;;;6217936;28;20034;-67
2023/09/10 12:11:34;;;;;;;1.38;1.27;;;22.10;65.30;;;;;;6242687;28;20033;-67
2023/09/10 12:14:36;;;;;;;1.38;1.25;;;22.10;66.20;;;;;;6220333;28;20654;-66
2023/09/10 12:17:37;;;;;;;1.48;1.23;;;22.10;65.40;;;;;;6217761;28;20116;-68
2023/09/10 12:20:38;;;;;;;1.10;1.00;;;22.00;65.20;;;;;;6234028;28;20116;-67
2023/09/10 12:23:39;;;;;;;1.42;1.33;;;22.00;65.30;;;;;;6208135;28;20109;-67
2023/09/10 12:26:39;;;;;;;1.30;1.10;;;22.10;65.40;;;;;;6211825;28;20041;-68
2023/09/10 12:29:41;;;;;;;1.55;1.25;;;22.10;65.30;;;;;;6228726;28;20128;-67
2023/09/10 12:32:41;;;;;;;1.20;1.10;;;22.10;65.30;;;;;;6222434;28;20481;-67
2023/09/10 12:35:42;;;;;;;0.80;0.80;;;22.00;65.30;;;;;;6218887;28;20030;-68
2023/09/10 12:38:43;;;;;;;1.50;1.13;;;22.10;65.30;;;;;;6232551;28;20026;-67
2023/09/10 12:42:01;;;;;;;1.65;1.15;;;22.00;65.20;;;;;;6229229;28;20049;-67
2023/09/10 12:45:02;;;;;;;1.25;1.10;;;22.00;65.30;;;;;;6213397;28;20022;-67
2023/09/10 12:48:04;;;;;;;1.60;1.23;;;22.00;65.30;;;;;;6237423;28;20026;-67
2023/09/10 12:51:05;;;;;;;1.42;1.30;;;22.10;65.40;;;;;;6210744;28;20113;-66
2023/09/10 12:54:07;;;;;;;1.38;1.00;;;22.00;65.40;;;;;;6219820;28;20033;-67
2023/09/10 12:57:10;;;;;;;1.42;1.27;;;22.10;65.40;;;;;;6215300;28;20432;-67
2023/09/10 13:00:11;;;;;;;1.70;1.40;;;22.00;65.30;;;;;;6230114;28;20033;-67
2023/09/10 13:03:12;;;;;;;1.30;1.20;;;22.00;65.30;;;;;;6237575;28;20104;-67
2023/09/10 13:06:12;;;;;;;1.40;1.30;;;22.00;65.30;;;;;;6233726;28;20431;-67
2023/09/10 13:09:13;;;;;;;1.45;1.30;;;22.10;65.40;;;;;;6235561;28;20113;-68
2023/09/10 13:12:14;;;;;;;1.38;1.20;;;22.10;66.20;;;;;;6240084;28;20043;-67
2023/09/10 13:15:18;;;;;;;2.03;1.30;;;22.10;65.40;;;;;;6224519;28;20160;-67
2023/09/10 13:18:19;;;;;;;1.42;1.27;;;22.00;65.30;;;;;;6240898;28;20041;-67
2023/09/10 13:21:19;;;;;;;1.67;1.20;;;22.10;65.40;;;;;;6222875;28;20424;-67
2023/09/10 13:24:20;;;;;;;1.27;1.17;;;22.00;65.40;;;;;;6229811;28;20049;-67
2023/09/10 13:27:21;;;;;;;1.63;1.30;;;22.00;65.30;;;;;;6238109;28;20056;-67
2023/09/10 13:30:24;;;;;;;1.20;1.10;;;22.00;66.20;;;;;;6234770;28;20024;-68
2023/09/10 13:33:24;;;;;;;1.17;1.05;;;22.00;65.40;;;;;;6242851;28;20104;-67
2023/09/10 13:36:25;;;;;;;1.30;1.15;;;22.10;65.40;;;;;;6226628;28;20028;-67
2023/09/10 13:39:27;;;;;;;1.50;1.27;;;22.00;65.40;;;;;;6235654;28;20033;-67
2023/09/10 13:42:27;;;;;;;1.52;1.13;;;22.00;65.30;;;;;;6234959;28;20045;-67
2023/09/10 13:45:28;;;;;;;1.42;1.30;;;22.10;65.50;;;;;;6238201;28;20017;-67
2023/09/10 13:48:28;;;;;;;1.30;1.20;;;22.10;65.40;;;;;;6239311;28;20036;-67
2023/09/10 13:51:29;;;;;;;1.25;1.10;;;22.00;65.30;;;;;;6228657;28;20159;-67
2023/09/10 13:54:29;;;;;;;1.40;1.30;;;22.10;66.30;;;;;;6243226;28;20044;-67
2023/09/10 13:57:30;;;;;;;1.10;1.00;;;22.10;65.40;;;;;;6230552;28;20551;-67
2023/09/10 14:00:31;;;;;;;1.23;0.90;;;22.10;65.40;;;;;;6225440;28;20045;-68
2023/09/10 14:03:31;;;;;;;1.30;1.20;;;22.10;65.40;;;;;;6239185;28;20022;-68
2023/09/10 14:06:32;;;;;;;0.98;0.90;;;22.10;65.40;;;;;;6233288;28;20029;-67
2023/09/10 14:09:32;;;;;;;1.25;1.10;;;22.10;65.40;;;;;;6242399;28;20025;-68
2023/09/10 14:12:33;;;;;;;3.22;1.08;;;22.10;65.40;;;;;;6233146;28;20319;-67
2023/09/10 14:15:34;;;;;;;1.40;1.17;;;22.10;65.40;;;;;;6242590;28;20403;-67
2023/09/10 14:18:37;;;;;;;1.65;1.30;;;22.10;65.40;;;;;;6227370;28;20030;-67
2023/09/10 14:21:38;;;;;;;1.10;1.00;;;22.00;65.30;;;;;;6214493;28;20037;-68
2023/09/10 14:24:39;;;;;;;1.58;1.30;;;22.00;65.30;;;;;;6220816;28;20069;-67
2023/09/10 14:27:39;;;;;;;1.63;1.30;;;22.10;65.40;;;;;;6234695;28;20033;-67
2023/09/10 14:30:41;;;;;;;1.30;1.20;;;22.00;65.30;;;;;;6239575;28;20025;-67
2023/09/10 14:33:41;;;;;;;1.67;1.42;;;22.10;65.40;;;;;;6232918;28;20029;-67
2023/09/10 14:36:42;;;;;;;1.50;1.35;;;22.00;65.30;;;;;;6235669;28;20026;-67
2023/09/10 14:39:43;;;;;;;1.10;1.00;;;22.10;65.40;;;;;;6206459;28;20061;-68
2023/09/10 14:42:43;;;;;;;1.30;1.20;;;22.10;65.40;;;;;;6225674;28;20087;-67
2023/09/10 14:45:44;;;;;;;2.13;1.30;;;22.10;65.40;;;;;;6195802;28;20129;-68
2023/09/10 14:48:46;;;;;;;1.33;1.10;;;22.00;65.30;;;;;;6199826;28;20061;-67
2023/09/10 14:51:47;;;;;;;1.63;1.38;;;22.00;65.30;;;;;;6224483;28;20092;-67
2023/09/10 14:54:48;;;;;;;1.30;1.20;;;22.00;65.30;;;;;;6232331;28;20083;-68
2023/09/10 14:57:49;;;;;;;1.30;1.17;;;22.00;65.30;;;;;;6232314;28;20025;-67
2023/09/10 15:00:50;;;;;;;1.70;1.20;;;22.00;65.30;;;;;;6212137;28;20265;-68
2023/09/10 15:03:50;;;;;;;1.30;1.20;;;22.10;65.50;;;;;;6226177;28;20025;-67
2023/09/10 15:06:52;;;;;;;1.48;1.33;;;22.10;65.40;;;;;;6237273;28;20029;-67
2023/09/10 15:09:53;;;;;;;1.98;1.33;;;22.10;65.40;;;;;;6232292;28;20370;-67
2023/09/10 15:12:54;;;;;;;1.42;1.20;;;22.00;65.30;;;;;;6236713;28;20061;-67
2023/09/10 15:15:54;;;;;;;2.03;1.30;;;22.10;65.40;;;;;;6224246;28;20033;-67
2023/09/10 15:18:55;;;;;;;1.40;1.17;;;22.10;65.40;;;;;;6229241;28;20063;-66
2023/09/10 15:21:56;;;;;;;1.80;1.38;;;22.10;65.40;;;;;;6238542;28;20040;-67
2023/09/10 15:24:56;;;;;;;1.58;1.35;;;22.00;65.30;;;;;;6233385;28;20312;-67
2023/09/10 15:27:57;;;;;;;1.20;1.05;;;22.10;65.40;;;;;;6239477;28;20404;-67
2023/09/10 15:30:58;;;;;;;1.30;1.20;;;22.10;65.40;;;;;;6231728;28;20033;-67
2023/09/10 15:33:58;;;;;;;1.17;1.00;;;22.00;65.30;;;;;;6239150;28;20490;-67
2023/09/10 15:36:59;;;;;;;1.52;1.38;;;22.00;65.30;;;;;;6236517;28;20026;-67
2023/09/10 15:40:00;;;;;;;1.30;1.00;;;22.10;65.40;;;;;;6223136;28;20029;-67
2023/09/10 15:43:00;;;;;;;1.50;1.20;;;22.10;65.40;;;;;;6204690;28;20022;-67
2023/09/10 15:46:01;;;;;;;1.30;1.10;;;22.00;65.30;;;;;;6232382;28;20038;-68
2023/09/10 15:49:04;;;;;;;1.75;1.10;;;22.00;65.30;;;;;;6232957;28;20032;-68
2023/09/10 15:52:05;;;;;;;1.10;1.00;;;22.10;65.40;;;;;;6227084;28;20040;-67